sensor_id;sensor_type;location;lat;lon;timestamp;pressure;altitude;pressure_sealevel;temperature;humidity
59315;BME280;46521;50.160;20.802;2023-11-21T00:08:20;98800.67;;;7.07;94.69
59315;BME280;46521;50.160;20.802;2023-11-21T00:18:21;98807.11;;;7.04;94.89
59315;BME280;46521;50.160;20.802;2023-11-21T00:28:23;98809.06;;;7.02;95.13
59315;BME280;46521;50.160;20.802;2023-11-21T00:38:26;98814.31;;;7.02;94.68
59315;BME280;46521;50.160;20.802;2023-11-21T00:48:28;98822.05;;;7.03;93.95
59315;BME280;46521;50.160;20.802;2023-11-21T00:58:29;98819.25;;;7.05;93.86
59315;BME280;46521;50.160;20.802;2023-11-21T01:08:31;98807.92;;;7.04;94.38
59315;BME280;46521;50.160;20.802;2023-11-21T01:18:33;98807.92;;;7.04;94.48
59315;BME280;46521;50.160;20.802;2023-11-21T01:28:34;98815.49;;;6.99;94.27
59315;BME280;46521;50.160;20.802;2023-11-21T01:38:35;98816.15;;;6.93;94.67
59315;BME280;46521;50.160;20.802;2023-11-21T01:48:37;98818.46;;;6.88;94.83
59315;BME280;46521;50.160;20.802;2023-11-21T01:58:40;98818.95;;;6.83;94.79
59315;BME280;46521;50.160;20.802;2023-11-21T02:08:43;98815.48;;;6.83;94.60
59315;BME280;46521;50.160;20.802;2023-11-21T02:18:45;98816.16;;;6.85;94.38
59315;BME280;46521;50.160;20.802;2023-11-21T02:28:48;98817.95;;;6.84;93.73
59315;BME280;46521;50.160;20.802;2023-11-21T02:38:50;98832.91;;;6.84;94.45
59315;BME280;46521;50.160;20.802;2023-11-21T02:48:51;98830.11;;;6.85;94.53
59315;BME280;46521;50.160;20.802;2023-11-21T02:58:55;98834.23;;;6.88;94.32
59315;BME280;46521;50.160;20.802;2023-11-21T03:08:57;98828.81;;;6.90;94.71
59315;BME280;46521;50.160;20.802;2023-11-21T03:18:59;98837.51;;;6.90;94.17
59315;BME280;46521;50.160;20.802;2023-11-21T03:29:00;98831.60;;;6.88;94.40
59315;BME280;46521;50.160;20.802;2023-11-21T03:39:02;98839.48;;;6.88;93.85
59315;BME280;46521;50.160;20.802;2023-11-21T03:49:03;98841.77;;;6.83;94.28
59315;BME280;46521;50.160;20.802;2023-11-21T03:59:05;98839.30;;;6.81;94.47
59315;BME280;46521;50.160;20.802;2023-11-21T04:09:06;98842.09;;;6.80;94.99
59315;BME280;46521;50.160;20.802;2023-11-21T04:19:08;98854.58;;;6.78;94.34
59315;BME280;46521;50.160;20.802;2023-11-21T04:29:15;98849.33;;;6.78;94.82
59315;BME280;46521;50.160;20.802;2023-11-21T04:39:17;98854.26;;;6.81;93.84
59315;BME280;46521;50.160;20.802;2023-11-21T04:49:18;98863.12;;;6.80;94.64
59315;BME280;46521;50.160;20.802;2023-11-21T04:59:20;98866.91;;;6.77;94.50
59315;BME280;46521;50.160;20.802;2023-11-21T05:09:21;98867.40;;;6.73;94.33
59315;BME280;46521;50.160;20.802;2023-11-21T05:19:23;98879.86;;;6.71;94.61
59315;BME280;46521;50.160;20.802;2023-11-21T05:29:24;98887.09;;;6.68;94.87
59315;BME280;46521;50.160;20.802;2023-11-21T05:39:27;98892.34;;;6.68;94.41
59315;BME280;46521;50.160;20.802;2023-11-21T05:49:29;98900.23;;;6.68;93.94
59315;BME280;46521;50.160;20.802;2023-11-21T05:59:31;98905.80;;;6.65;94.61
59315;BME280;46521;50.160;20.802;2023-11-21T06:09:32;98896.59;;;6.61;94.22
59315;BME280;46521;50.160;20.802;2023-11-21T06:19:33;98919.73;;;6.58;94.24
59315;BME280;46521;50.160;20.802;2023-11-21T06:29:35;98938.45;;;6.55;94.58
59315;BME280;46521;50.160;20.802;2023-11-21T06:39:38;98938.61;;;6.53;93.95
59315;BME280;46521;50.160;20.802;2023-11-21T06:49:40;98960.31;;;6.55;94.79
59315;BME280;46521;50.160;20.802;2023-11-21T06:59:42;98972.45;;;6.56;93.99
59315;BME280;46521;50.160;20.802;2023-11-21T07:09:43;98977.54;;;6.58;94.86
59315;BME280;46521;50.160;20.802;2023-11-21T07:19:46;98982.95;;;6.56;95.05
59315;BME280;46521;50.160;20.802;2023-11-21T07:29:47;98989.53;;;6.52;94.61
59315;BME280;46521;50.160;20.802;2023-11-21T07:39:49;99006.26;;;6.51;94.94
59315;BME280;46521;50.160;20.802;2023-11-21T07:49:50;99016.77;;;6.51;94.88
59315;BME280;46521;50.160;20.802;2023-11-21T07:59:52;99014.95;;;6.52;95.29
59315;BME280;46521;50.160;20.802;2023-11-21T08:09:55;99024.49;;;6.53;95.03
59315;BME280;46521;50.160;20.802;2023-11-21T08:19:57;99036.34;;;6.57;94.79
59315;BME280;46521;50.160;20.802;2023-11-21T08:29:59;99038.16;;;6.64;94.73
59315;BME280;46521;50.160;20.802;2023-11-21T08:40:00;99051.35;;;6.73;95.06
59315;BME280;46521;50.160;20.802;2023-11-21T08:50:03;99058.08;;;6.75;95.22
59315;BME280;46521;50.160;20.802;2023-11-21T09:00:07;99077.26;;;6.67;94.94
59315;BME280;46521;50.160;20.802;2023-11-21T09:10:12;99065.78;;;6.68;94.28
59315;BME280;46521;50.160;20.802;2023-11-21T09:20:14;99074.16;;;6.72;94.28
59315;BME280;46521;50.160;20.802;2023-11-21T09:30:16;99061.02;;;6.72;94.12
59315;BME280;46521;50.160;20.802;2023-11-21T09:40:21;99064.02;;;6.77;94.04
59315;BME280;46521;50.160;20.802;2023-11-21T09:50:24;99071.12;;;6.85;93.67
59315;BME280;46521;50.160;20.802;2023-11-21T10:00:27;99072.11;;;6.92;93.92
59315;BME280;46521;50.160;20.802;2023-11-21T10:10:29;99076.26;;;7.03;94.05
59315;BME280;46521;50.160;20.802;2023-11-21T10:20:33;99082.88;;;7.15;94.02
59315;BME280;46521;50.160;20.802;2023-11-21T10:30:36;99081.42;;;7.21;93.11
59315;BME280;46521;50.160;20.802;2023-11-21T10:40:41;99089.65;;;7.26;92.81
59315;BME280;46521;50.160;20.802;2023-11-21T10:50:47;99091.95;;;7.21;93.55
59315;BME280;46521;50.160;20.802;2023-11-21T11:00:48;99083.89;;;7.23;93.45
59315;BME280;46521;50.160;20.802;2023-11-21T11:10:52;99087.00;;;7.18;93.09
59315;BME280;46521;50.160;20.802;2023-11-21T11:20:54;99086.16;;;7.17;92.68
59315;BME280;46521;50.160;20.802;2023-11-21T11:31:05;99087.83;;;7.27;92.82
59315;BME280;46521;50.160;20.802;2023-11-21T11:41:12;99079.79;;;7.36;92.93
59315;BME280;46521;50.160;20.802;2023-11-21T11:51:15;99088.05;;;7.42;93.09
59315;BME280;46521;50.160;20.802;2023-11-21T12:01:22;99096.59;;;7.44;92.63
59315;BME280;46521;50.160;20.802;2023-11-21T12:11:32;99103.51;;;7.45;92.30
59315;BME280;46521;50.160;20.802;2023-11-21T12:21:36;99108.25;;;7.41;92.32
59315;BME280;46521;50.160;20.802;2023-11-21T12:31:38;99123.38;;;7.39;92.52
59315;BME280;46521;50.160;20.802;2023-11-21T12:41:41;99120.73;;;7.31;92.01
59315;BME280;46521;50.160;20.802;2023-11-21T12:51:45;99125.84;;;7.32;91.69
59315;BME280;46521;50.160;20.802;2023-11-21T13:01:46;99134.70;;;7.31;91.84
59315;BME280;46521;50.160;20.802;2023-11-21T13:11:48;99140.59;;;7.25;91.45
59315;BME280;46521;50.160;20.802;2023-11-21T13:21:50;99152.38;;;7.13;91.70
59315;BME280;46521;50.160;20.802;2023-11-21T13:31:51;99150.35;;;6.98;92.05
59315;BME280;46521;50.160;20.802;2023-11-21T13:41:54;99155.42;;;6.92;91.54
59315;BME280;46521;50.160;20.802;2023-11-21T13:51:57;99173.63;;;6.85;90.93
59315;BME280;46521;50.160;20.802;2023-11-21T14:02:00;99182.14;;;6.79;90.83
59315;BME280;46521;50.160;20.802;2023-11-21T14:12:17;99188.36;;;6.78;92.08
59315;BME280;46521;50.160;20.802;2023-11-21T14:22:19;99196.40;;;6.76;91.07
59315;BME280;46521;50.160;20.802;2023-11-21T14:32:22;99200.25;;;6.64;91.23
59315;BME280;46521;50.160;20.802;2023-11-21T14:42:23;99208.23;;;6.54;91.70
59315;BME280;46521;50.160;20.802;2023-11-21T14:52:28;99209.00;;;6.46;91.96
59315;BME280;46521;50.160;20.802;2023-11-21T15:02:35;99207.95;;;6.39;91.30
59315;BME280;46521;50.160;20.802;2023-11-21T15:12:52;99216.22;;;6.26;91.38
59315;BME280;46521;50.160;20.802;2023-11-21T15:22:54;99217.57;;;6.12;90.81
59315;BME280;46521;50.160;20.802;2023-11-21T15:32:55;99236.69;;;6.05;91.62
59315;BME280;46521;50.160;20.802;2023-11-21T15:42:57;99244.20;;;6.00;91.54
59315;BME280;46521;50.160;20.802;2023-11-21T15:52:59;99248.81;;;5.88;91.48
59315;BME280;46521;50.160;20.802;2023-11-21T16:03:00;99271.66;;;5.77;90.61
59315;BME280;46521;50.160;20.802;2023-11-21T16:13:03;99291.62;;;5.60;91.46
59315;BME280;46521;50.160;20.802;2023-11-21T16:23:04;99303.02;;;5.41;90.93
59315;BME280;46521;50.160;20.802;2023-11-21T16:33:06;99314.39;;;5.22;90.69
59315;BME280;46521;50.160;20.802;2023-11-21T16:43:09;99319.10;;;5.09;91.08
59315;BME280;46521;50.160;20.802;2023-11-21T16:53:11;99323.27;;;5.02;90.66
59315;BME280;46521;50.160;20.802;2023-11-21T17:03:13;99335.82;;;4.88;90.37
59315;BME280;46521;50.160;20.802;2023-11-21T17:13:15;99344.23;;;4.82;90.11
59315;BME280;46521;50.160;20.802;2023-11-21T17:23:16;99362.31;;;4.66;90.00
59315;BME280;46521;50.160;20.802;2023-11-21T17:33:19;99369.59;;;4.53;89.68
59315;BME280;46521;50.160;20.802;2023-11-21T17:43:21;99391.36;;;4.43;89.83
59315;BME280;46521;50.160;20.802;2023-11-21T17:53:22;99405.81;;;4.28;89.61
59315;BME280;46521;50.160;20.802;2023-11-21T18:03:24;99422.39;;;4.07;89.63
59315;BME280;46521;50.160;20.802;2023-11-21T18:13:26;99424.51;;;3.83;89.22
59315;BME280;46521;50.160;20.802;2023-11-21T18:23:28;99415.42;;;3.56;89.12
59315;BME280;46521;50.160;20.802;2023-11-21T18:33:29;99433.64;;;3.46;89.36
59315;BME280;46521;50.160;20.802;2023-11-21T18:43:31;99453.80;;;3.34;89.12
59315;BME280;46521;50.160;20.802;2023-11-21T18:53:32;99465.52;;;3.19;88.98
59315;BME280;46521;50.160;20.802;2023-11-21T19:03:35;99487.28;;;3.08;89.08
59315;BME280;46521;50.160;20.802;2023-11-21T19:13:37;99501.70;;;2.91;88.33
59315;BME280;46521;50.160;20.802;2023-11-21T19:23:38;99514.55;;;2.83;88.69
59315;BME280;46521;50.160;20.802;2023-11-21T19:33:40;99533.67;;;2.72;88.55
59315;BME280;46521;50.160;20.802;2023-11-21T19:43:46;99549.23;;;2.62;87.98
59315;BME280;46521;50.160;20.802;2023-11-21T19:53:50;99559.55;;;2.41;88.77
59315;BME280;46521;50.160;20.802;2023-11-21T20:03:52;99587.19;;;2.21;88.05
59315;BME280;46521;50.160;20.802;2023-11-21T20:13:54;99601.50;;;2.04;88.13
59315;BME280;46521;50.160;20.802;2023-11-21T20:23:57;99617.86;;;2.06;88.36
59315;BME280;46521;50.160;20.802;2023-11-21T20:33:58;99629.56;;;2.01;87.01
59315;BME280;46521;50.160;20.802;2023-11-21T20:44:00;99646.78;;;2.03;88.05
59315;BME280;46521;50.160;20.802;2023-11-21T20:54:02;99660.16;;;1.98;87.46
59315;BME280;46521;50.160;20.802;2023-11-21T21:04:05;99675.77;;;1.87;87.77
59315;BME280;46521;50.160;20.802;2023-11-21T21:14:11;99680.50;;;1.82;87.63
59315;BME280;46521;50.160;20.802;2023-11-21T21:24:12;99694.14;;;1.61;86.92
59315;BME280;46521;50.160;20.802;2023-11-21T21:34:14;99706.19;;;1.38;86.96
59315;BME280;46521;50.160;20.802;2023-11-21T21:44:17;99716.43;;;1.29;87.59
59315;BME280;46521;50.160;20.802;2023-11-21T21:54:19;99739.55;;;1.20;87.53
59315;BME280;46521;50.160;20.802;2023-11-21T22:04:21;99746.56;;;1.07;87.30
59315;BME280;46521;50.160;20.802;2023-11-21T22:14:22;99756.02;;;1.08;87.44
59315;BME280;46521;50.160;20.802;2023-11-21T22:24:24;99761.55;;;1.03;86.71
59315;BME280;46521;50.160;20.802;2023-11-21T22:34:25;99785.09;;;1.02;86.79
59315;BME280;46521;50.160;20.802;2023-11-21T22:44:27;99802.91;;;0.95;87.04
59315;BME280;46521;50.160;20.802;2023-11-21T22:54:28;99816.98;;;0.93;86.85
59315;BME280;46521;50.160;20.802;2023-11-21T23:04:30;99833.94;;;0.85;86.31
59315;BME280;46521;50.160;20.802;2023-11-21T23:14:32;99836.95;;;0.79;86.74
59315;BME280;46521;50.160;20.802;2023-11-21T23:24:34;99862.66;;;0.71;86.75
59315;BME280;46521;50.160;20.802;2023-11-21T23:34:35;99865.58;;;0.79;86.62
59315;BME280;46521;50.160;20.802;2023-11-21T23:44:37;99879.00;;;0.73;86.30
59315;BME280;46521;50.160;20.802;2023-11-21T23:54:38;99876.06;;;0.65;86.42
